createdAt,value
2019-06-20T00:00:29.846Z,18.27
2019-06-20T00:02:55.709Z,18.27
2019-06-20T00:05:21.870Z,18.36
2019-06-20T00:07:47.723Z,18.21
2019-06-20T00:10:13.603Z,18.22
2019-06-20T00:12:39.456Z,18.26
2019-06-20T00:15:05.411Z,18.32
2019-06-20T00:17:31.276Z,18.29
2019-06-20T00:19:57.134Z,18.14
2019-06-20T00:22:22.991Z,18.09
2019-06-20T00:24:48.862Z,17.96
2019-06-20T00:27:14.808Z,17.97
2019-06-20T00:29:40.667Z,17.83
2019-06-20T00:32:06.635Z,17.84
2019-06-20T00:34:32.511Z,17.82
2019-06-20T00:36:58.358Z,18.03
2019-06-20T00:39:24.226Z,17.99
2019-06-20T00:41:50.095Z,17.85
2019-06-20T00:44:15.960Z,17.66
2019-06-20T00:46:41.818Z,17.71
2019-06-20T00:49:07.684Z,17.59
2019-06-20T00:51:33.552Z,17.70
2019-06-20T00:53:59.420Z,17.82
2019-06-20T00:56:25.278Z,17.76
2019-06-20T00:58:51.127Z,17.71
2019-06-20T01:01:16.994Z,17.77
2019-06-20T01:03:42.854Z,17.61
2019-06-20T01:06:08.695Z,17.62
2019-06-20T01:08:34.574Z,17.52
2019-06-20T01:11:00.427Z,17.47
2019-06-20T01:13:33.743Z,17.42
2019-06-20T01:15:54.055Z,17.57
2019-06-20T01:18:19.905Z,17.67
2019-06-20T01:20:45.761Z,17.77
2019-06-20T01:23:11.623Z,17.79
2019-06-20T01:25:40.198Z,17.63
2019-06-20T01:28:06.543Z,17.62
2019-06-20T01:30:32.393Z,17.63
2019-06-20T01:32:58.347Z,17.63
2019-06-20T01:35:24.244Z,17.41
2019-06-20T01:37:50.094Z,17.33
2019-06-20T01:40:16.871Z,17.24
2019-06-20T01:42:42.727Z,17.30
2019-06-20T01:45:08.778Z,17.32
2019-06-20T01:47:34.735Z,17.36
2019-06-20T01:50:00.690Z,17.23
2019-06-20T01:52:26.557Z,17.22
2019-06-20T01:54:52.412Z,17.22
2019-06-20T01:57:18.271Z,17.18
2019-06-20T01:59:44.127Z,17.15
2019-06-20T02:02:10.020Z,17.13
2019-06-20T02:04:35.841Z,17.10
2019-06-20T02:07:01.698Z,17.20
2019-06-20T02:09:27.553Z,17.21
2019-06-20T02:11:53.415Z,17.24
2019-06-20T02:14:19.299Z,17.38
2019-06-20T02:16:45.151Z,17.42
2019-06-20T02:19:11.011Z,17.41
2019-06-20T02:21:36.879Z,17.57
2019-06-20T02:24:03.132Z,17.68
2019-06-20T02:26:28.997Z,17.61
2019-06-20T02:28:54.862Z,17.59
2019-06-20T02:31:20.816Z,17.65
2019-06-20T02:33:46.628Z,17.53
2019-06-20T02:36:12.476Z,17.65
2019-06-20T02:38:38.337Z,17.57
2019-06-20T02:41:04.185Z,17.65
2019-06-20T02:43:30.134Z,17.68
2019-06-20T02:45:56.163Z,17.66
2019-06-20T02:48:22.002Z,17.67
2019-06-20T02:50:48.046Z,17.65
2019-06-20T02:53:13.903Z,17.66
2019-06-20T02:55:39.862Z,17.66
2019-06-20T02:58:05.746Z,17.61
2019-06-20T03:00:54.281Z,17.42
2019-06-20T03:03:20.146Z,17.49
2019-06-20T03:05:46.098Z,17.58
2019-06-20T03:08:11.949Z,17.62
2019-06-20T03:10:37.804Z,17.62
2019-06-20T03:13:03.656Z,17.63
2019-06-20T03:15:29.509Z,17.65
2019-06-20T03:17:55.367Z,17.59
2019-06-20T03:20:21.219Z,17.64
2019-06-20T03:22:47.066Z,17.66
2019-06-20T03:25:14.332Z,17.52
2019-06-20T03:27:40.191Z,17.52
2019-06-20T03:30:06.338Z,17.64
2019-06-20T03:32:32.195Z,17.65
2019-06-20T03:34:58.134Z,17.66
2019-06-20T03:37:24.335Z,17.68
2019-06-20T03:39:50.182Z,17.66
2019-06-20T03:42:16.041Z,17.70
2019-06-20T03:44:41.899Z,17.71
2019-06-20T03:47:07.731Z,17.68
2019-06-20T03:49:33.596Z,17.66
2019-06-20T03:51:59.518Z,17.71
2019-06-20T03:54:25.371Z,17.71
2019-06-20T03:56:51.239Z,17.70
2019-06-20T03:59:17.077Z,17.58
2019-06-20T04:01:42.925Z,17.62
2019-06-20T04:04:08.777Z,17.58
2019-06-20T04:06:34.629Z,17.63
2019-06-20T04:09:00.490Z,17.61
2019-06-20T04:11:26.359Z,17.42
2019-06-20T04:13:52.223Z,17.51
2019-06-20T04:16:18.122Z,17.58
2019-06-20T04:18:43.986Z,17.56
2019-06-20T04:21:09.820Z,17.32
2019-06-20T04:23:35.699Z,17.21
2019-06-20T04:26:01.562Z,17.30
2019-06-20T04:28:27.414Z,17.42
2019-06-20T04:30:53.273Z,17.32
2019-06-20T04:33:19.183Z,17.47
2019-06-20T04:35:45.004Z,17.47
2019-06-20T04:38:10.978Z,17.54
2019-06-20T04:40:36.839Z,17.57
2019-06-20T04:43:02.692Z,17.59
2019-06-20T04:45:35.971Z,17.59
2019-06-20T04:48:01.821Z,17.52
2019-06-20T04:50:27.674Z,17.58
2019-06-20T04:52:53.515Z,17.43
2019-06-20T04:55:19.471Z,17.56
2019-06-20T04:57:45.331Z,17.61
2019-06-20T05:00:11.285Z,17.56
2019-06-20T05:02:37.148Z,17.49
2019-06-20T05:05:04.995Z,17.49
2019-06-20T05:07:30.938Z,17.61
2019-06-20T05:09:56.804Z,17.66
2019-06-20T05:12:22.690Z,17.76
2019-06-20T05:14:48.519Z,17.85
2019-06-20T05:17:14.359Z,17.87
2019-06-20T05:19:40.246Z,17.72
2019-06-20T05:22:06.097Z,17.81
2019-06-20T05:24:31.950Z,17.72
2019-06-20T05:26:57.834Z,17.89
2019-06-20T05:29:23.660Z,17.75
2019-06-20T05:31:49.523Z,17.80
2019-06-20T05:34:15.379Z,17.66
2019-06-20T05:36:41.261Z,17.66
2019-06-20T05:39:07.129Z,17.66
2019-06-20T05:41:32.990Z,17.72
2019-06-20T05:43:58.860Z,18.01
2019-06-20T05:46:24.724Z,17.83
2019-06-20T05:48:50.587Z,18.18
2019-06-20T05:51:16.453Z,18.41
2019-06-20T05:53:42.405Z,18.85
2019-06-20T05:56:08.749Z,18.79
2019-06-20T05:58:34.731Z,18.84
2019-06-20T06:01:00.614Z,19.26
2019-06-20T06:03:26.499Z,18.93
2019-06-20T06:05:52.371Z,18.88
2019-06-20T06:08:18.222Z,18.81
2019-06-20T06:10:44.377Z,18.74
2019-06-20T06:13:10.252Z,18.73
2019-06-20T06:15:36.136Z,18.72
2019-06-20T06:18:02.261Z,18.64
2019-06-20T06:20:28.332Z,18.78
2019-06-20T06:22:54.196Z,18.86
2019-06-20T06:25:20.066Z,18.73
2019-06-20T06:27:45.927Z,18.70
2019-06-20T06:30:12.782Z,18.33
2019-06-20T06:32:40.489Z,18.17
2019-06-20T06:35:08.624Z,18.00
2019-06-20T06:37:35.339Z,17.90
2019-06-20T06:40:09.469Z,18.25
2019-06-20T06:42:35.327Z,17.95
2019-06-20T06:45:01.383Z,18.00
2019-06-20T06:47:27.239Z,17.98
2019-06-20T06:49:53.135Z,17.87
2019-06-20T06:52:19.040Z,18.10
2019-06-20T06:54:44.885Z,18.22
2019-06-20T06:57:10.742Z,18.24
2019-06-20T06:59:36.598Z,18.07
2019-06-20T07:02:02.756Z,17.99
2019-06-20T07:04:28.602Z,17.81
2019-06-20T07:06:54.464Z,17.72
2019-06-20T07:09:20.331Z,17.63
2019-06-20T07:11:46.191Z,18.02
2019-06-20T07:14:12.060Z,18.05
2019-06-20T07:16:37.912Z,18.04
2019-06-20T07:19:03.759Z,18.39
2019-06-20T07:21:29.627Z,18.01
2019-06-20T07:23:55.479Z,18.04
2019-06-20T07:26:24.259Z,18.11
2019-06-20T07:28:51.599Z,17.90
2019-06-20T07:31:17.540Z,17.86
2019-06-20T07:33:43.426Z,17.84
2019-06-20T07:36:09.290Z,18.18
2019-06-20T07:38:35.152Z,18.56
2019-06-20T07:41:01.024Z,18.64
2019-06-20T07:43:26.987Z,18.48
2019-06-20T07:46:02.684Z,19.03
2019-06-20T07:48:20.679Z,18.91
2019-06-20T07:50:46.597Z,18.78
2019-06-20T07:53:12.513Z,18.71
2019-06-20T07:55:38.364Z,18.63
2019-06-20T07:58:04.284Z,18.72
2019-06-20T08:00:30.132Z,18.94
2019-06-20T08:02:55.993Z,19.77
2019-06-20T08:05:21.946Z,19.97
2019-06-20T08:07:47.860Z,19.67
2019-06-20T08:10:14.516Z,19.42
2019-06-20T08:12:40.387Z,19.51
2019-06-20T08:15:14.920Z,19.73
2019-06-20T08:17:35.869Z,19.41
2019-06-20T08:20:04.776Z,19.11
2019-06-20T08:22:30.663Z,19.31
2019-06-20T08:24:56.783Z,19.29
2019-06-20T08:27:24.567Z,19.27
2019-06-20T08:29:50.426Z,19.42
2019-06-20T08:32:16.302Z,19.32
2019-06-20T08:34:42.313Z,19.50
2019-06-20T08:37:08.166Z,19.43
2019-06-20T08:39:34.034Z,19.87
2019-06-20T08:42:00.493Z,19.75
2019-06-20T08:44:26.444Z,19.81
2019-06-20T08:46:52.341Z,19.85
2019-06-20T08:49:18.308Z,19.88
2019-06-20T08:51:44.133Z,19.99
2019-06-20T08:54:10.011Z,20.01
2019-06-20T08:56:35.884Z,19.94
2019-06-20T08:59:02.602Z,19.51
2019-06-20T09:01:28.482Z,19.54
2019-06-20T09:03:55.657Z,19.23
2019-06-20T09:06:22.133Z,19.19
2019-06-20T09:08:47.990Z,19.53
2019-06-20T09:11:13.845Z,19.53
2019-06-20T09:13:40.641Z,19.41
2019-06-20T09:16:06.658Z,19.59
2019-06-20T09:18:32.530Z,19.47
2019-06-20T09:20:58.381Z,19.33
2019-06-20T09:23:24.235Z,19.38
2019-06-20T09:25:51.134Z,19.39
2019-06-20T09:28:17.884Z,19.04
2019-06-20T09:30:43.850Z,19.00
2019-06-20T09:33:09.711Z,19.03
2019-06-20T09:35:35.765Z,19.08
2019-06-20T09:38:01.718Z,19.08
2019-06-20T09:40:27.896Z,19.01
2019-06-20T09:42:54.502Z,18.96
2019-06-20T09:45:20.806Z,19.36
2019-06-20T09:47:46.664Z,19.14
2019-06-20T09:50:13.547Z,18.98
2019-06-20T09:52:39.494Z,18.83
2019-06-20T09:55:06.375Z,18.88
2019-06-20T09:57:32.264Z,18.93
2019-06-20T10:00:07.594Z,18.99
2019-06-20T10:02:25.892Z,18.99
2019-06-20T10:04:52.370Z,18.95
2019-06-20T10:07:18.310Z,19.31
2019-06-20T10:09:46.649Z,19.48
2019-06-20T10:12:11.945Z,19.74
2019-06-20T10:14:37.809Z,19.84
2019-06-20T10:17:03.662Z,20.23
2019-06-20T10:19:29.512Z,19.90
2019-06-20T10:21:56.047Z,19.81
2019-06-20T10:24:21.929Z,20.50
2019-06-20T10:26:49.531Z,20.14
2019-06-20T10:29:15.528Z,20.39
2019-06-20T10:31:41.384Z,20.73
2019-06-20T10:34:07.247Z,20.02
2019-06-20T10:36:33.099Z,20.29
2019-06-20T10:38:58.962Z,20.69
2019-06-20T10:41:24.913Z,20.78
2019-06-20T10:43:51.758Z,20.82
2019-06-20T10:46:17.832Z,20.59
2019-06-20T10:48:44.360Z,20.85
2019-06-20T10:51:28.828Z,20.60
2019-06-20T10:53:54.800Z,20.88
2019-06-20T10:56:20.625Z,20.79
2019-06-20T10:58:46.473Z,20.70
2019-06-20T11:01:12.317Z,20.35
2019-06-20T11:03:39.444Z,20.20
2019-06-20T11:06:05.950Z,20.53
2019-06-20T11:08:31.799Z,20.70
2019-06-20T11:10:57.664Z,20.68
2019-06-20T11:13:23.519Z,20.76
2019-06-20T11:15:49.356Z,20.94
2019-06-20T11:18:15.217Z,21.03
2019-06-20T11:20:42.662Z,21.16
2019-06-20T11:23:08.653Z,21.22
2019-06-20T11:25:34.518Z,21.39
2019-06-20T11:28:00.398Z,21.24
2019-06-20T11:30:28.946Z,21.14
2019-06-20T11:32:54.823Z,21.58
2019-06-20T11:35:20.671Z,21.10
2019-06-20T11:37:47.205Z,21.25
2019-06-20T11:40:14.503Z,21.19
2019-06-20T11:42:40.369Z,21.16
2019-06-20T11:45:06.937Z,20.54
2019-06-20T11:47:34.944Z,20.55
2019-06-20T11:50:00.605Z,21.29
2019-06-20T11:52:26.490Z,21.34
2019-06-20T11:54:52.341Z,21.40
2019-06-20T11:57:18.633Z,21.04
2019-06-20T11:59:44.500Z,20.80
2019-06-20T12:02:10.370Z,20.80
2019-06-20T12:04:36.235Z,20.61
2019-06-20T12:07:02.078Z,20.83
2019-06-20T12:09:27.933Z,21.23
2019-06-20T12:11:53.787Z,21.22
2019-06-20T12:14:19.651Z,21.12
2019-06-20T12:16:46.430Z,21.04
2019-06-20T12:19:12.389Z,20.92
2019-06-20T12:21:39.736Z,20.75
2019-06-20T12:24:08.525Z,20.27
2019-06-20T12:26:33.864Z,20.27
2019-06-20T12:28:59.720Z,19.92
2019-06-20T12:31:25.589Z,20.23
2019-06-20T12:33:51.444Z,20.03
2019-06-20T12:36:17.307Z,19.93
2019-06-20T12:38:43.280Z,19.78
2019-06-20T12:41:09.107Z,19.72
2019-06-20T12:43:34.960Z,19.67
2019-06-20T12:46:00.822Z,19.66
2019-06-20T12:48:26.682Z,19.68
2019-06-20T12:50:52.540Z,19.73
2019-06-20T12:53:18.427Z,19.83
2019-06-20T12:55:45.761Z,20.03
2019-06-20T12:58:11.734Z,20.23
2019-06-20T13:00:39.581Z,20.27
2019-06-20T13:03:05.535Z,20.46
2019-06-20T13:05:31.521Z,20.39
2019-06-20T13:07:57.389Z,20.59
2019-06-20T13:10:23.250Z,20.53
2019-06-20T13:12:49.103Z,20.82
2019-06-20T13:15:16.965Z,20.61
2019-06-20T13:17:43.656Z,20.66
2019-06-20T13:20:12.887Z,20.81
2019-06-20T13:22:39.518Z,21.25
2019-06-20T13:25:07.017Z,21.50
2019-06-20T13:27:32.907Z,21.48
2019-06-20T13:29:58.786Z,21.39
2019-06-20T13:32:24.643Z,21.30
2019-06-20T13:34:50.499Z,21.26
2019-06-20T13:37:16.376Z,21.24
2019-06-20T13:39:43.337Z,21.68
2019-06-20T13:42:09.205Z,21.56
2019-06-20T13:44:35.091Z,21.46
2019-06-20T13:47:00.953Z,21.52
2019-06-20T13:49:26.810Z,21.59
2019-06-20T13:51:52.684Z,21.66
2019-06-20T13:54:18.575Z,21.30
2019-06-20T13:56:45.370Z,21.23
2019-06-20T13:59:11.316Z,21.36
2019-06-20T14:01:37.166Z,21.82
2019-06-20T14:04:03.545Z,22.11
2019-06-20T14:06:29.417Z,22.07
2019-06-20T14:08:55.610Z,21.74
2019-06-20T14:11:21.492Z,21.51
2019-06-20T14:13:50.154Z,21.69
2019-06-20T14:16:15.200Z,21.66
2019-06-20T14:18:42.565Z,21.31
2019-06-20T14:21:08.834Z,21.83
2019-06-20T14:23:34.696Z,21.40
2019-06-20T14:26:00.549Z,21.35
2019-06-20T14:28:26.551Z,21.60
2019-06-20T14:30:52.695Z,21.59
2019-06-20T14:33:18.678Z,21.61
2019-06-20T14:35:46.105Z,21.74
2019-06-20T14:38:12.416Z,22.04
2019-06-20T14:40:38.696Z,21.54
2019-06-20T14:43:04.696Z,21.43
2019-06-20T14:45:30.576Z,21.27
2019-06-20T14:47:56.444Z,21.09
2019-06-20T14:50:22.431Z,21.60
2019-06-20T14:52:49.966Z,22.05
2019-06-20T14:55:16.186Z,22.37
2019-06-20T14:57:44.650Z,22.01
2019-06-20T15:00:12.433Z,22.18
2019-06-20T15:02:39.099Z,22.02
2019-06-20T15:05:12.060Z,21.68
2019-06-20T15:07:37.909Z,22.15
2019-06-20T15:10:07.048Z,21.96
2019-06-20T15:12:32.957Z,21.64
2019-06-20T15:14:59.104Z,21.77
2019-06-20T15:17:24.938Z,21.79
2019-06-20T15:19:51.409Z,21.74
2019-06-20T15:22:17.365Z,21.69
2019-06-20T15:24:46.712Z,21.52
2019-06-20T15:27:11.918Z,21.49
2019-06-20T15:29:37.843Z,21.43
2019-06-20T15:32:03.708Z,21.55
2019-06-20T15:34:29.600Z,21.73
2019-06-20T15:36:55.468Z,21.65
2019-06-20T15:39:21.353Z,21.38
2019-06-20T15:41:48.815Z,21.25
2019-06-20T15:44:15.093Z,20.99
2019-06-20T15:46:41.879Z,20.89
2019-06-20T15:49:16.010Z,20.84
2019-06-20T15:51:35.550Z,20.88
2019-06-20T15:54:01.417Z,20.76
2019-06-20T15:56:28.177Z,20.68
2019-06-20T15:58:54.047Z,20.92
2019-06-20T16:01:19.895Z,20.99
2019-06-20T16:03:45.776Z,20.81
2019-06-20T16:06:11.624Z,20.72
2019-06-20T16:08:37.604Z,21.07
2019-06-20T16:11:03.466Z,21.12
2019-06-20T16:13:29.331Z,21.28
2019-06-20T16:15:55.187Z,20.95
2019-06-20T16:18:21.058Z,20.78
2019-06-20T16:20:46.909Z,20.98
2019-06-20T16:23:12.759Z,20.85
2019-06-20T16:25:38.634Z,20.86
2019-06-20T16:28:04.485Z,21.06
2019-06-20T16:30:33.555Z,21.05
2019-06-20T16:32:58.174Z,20.88
2019-06-20T16:35:23.981Z,20.90
2019-06-20T16:37:49.829Z,21.13
2019-06-20T16:40:19.509Z,21.27
2019-06-20T16:42:45.370Z,21.05
2019-06-20T16:45:11.832Z,20.90
2019-06-20T16:47:38.140Z,21.11
2019-06-20T16:50:05.232Z,21.23
2019-06-20T16:52:31.099Z,20.99
2019-06-20T16:54:56.982Z,20.59
2019-06-20T16:57:22.852Z,20.64
2019-06-20T16:59:48.849Z,20.54
2019-06-20T17:02:14.774Z,20.30
2019-06-20T17:04:43.440Z,20.22
2019-06-20T17:07:11.257Z,20.23
2019-06-20T17:09:40.428Z,20.48
2019-06-20T17:12:06.293Z,20.55
2019-06-20T17:14:32.155Z,20.55
2019-06-20T17:16:58.201Z,20.17
2019-06-20T17:19:24.177Z,20.03
2019-06-20T17:21:52.462Z,20.02
2019-06-20T17:24:18.853Z,19.90
2019-06-20T17:26:44.723Z,19.87
2019-06-20T17:29:14.484Z,19.73
2019-06-20T17:31:42.257Z,19.81
2019-06-20T17:34:10.578Z,19.86
2019-06-20T17:36:36.429Z,19.84
2019-06-20T17:39:05.279Z,19.86
2019-06-20T17:41:31.691Z,19.96
2019-06-20T17:44:01.117Z,19.75
2019-06-20T17:46:29.068Z,19.65
2019-06-20T17:48:54.948Z,19.86
2019-06-20T17:51:20.817Z,19.70
2019-06-20T17:53:49.549Z,19.54
2019-06-20T17:56:17.889Z,19.81
2019-06-20T17:58:42.510Z,19.81
2019-06-20T18:01:08.382Z,19.84
2019-06-20T18:03:34.237Z,19.86
2019-06-20T18:06:02.549Z,19.60
2019-06-20T18:08:28.506Z,19.74
2019-06-20T18:10:54.351Z,19.85
2019-06-20T18:13:22.301Z,19.59
2019-06-20T18:15:50.119Z,19.45
2019-06-20T18:18:16.046Z,19.49
2019-06-20T18:20:41.890Z,19.63
2019-06-20T18:23:07.745Z,19.45
2019-06-20T18:25:33.926Z,19.37
2019-06-20T18:28:00.083Z,19.22
2019-06-20T18:30:29.779Z,19.30
2019-06-20T18:32:55.658Z,19.41
2019-06-20T18:35:21.528Z,19.49
2019-06-20T18:37:47.398Z,19.31
2019-06-20T18:40:13.973Z,19.26
2019-06-20T18:42:39.830Z,19.16
2019-06-20T18:45:08.285Z,19.15
2019-06-20T18:47:34.146Z,19.16
2019-06-20T18:49:59.999Z,19.11
2019-06-20T18:52:25.906Z,19.05
2019-06-20T18:54:51.805Z,19.07
2019-06-20T18:57:19.663Z,19.12
2019-06-20T18:59:45.855Z,18.92
2019-06-20T19:02:11.813Z,18.86
2019-06-20T19:04:47.973Z,18.77
2019-06-20T19:07:07.582Z,18.74
2019-06-20T19:09:33.453Z,18.72
2019-06-20T19:11:59.349Z,18.70
2019-06-20T19:14:25.230Z,18.80
2019-06-20T19:16:51.102Z,18.80
2019-06-20T19:19:20.591Z,18.81
2019-06-20T19:21:44.724Z,18.63
2019-06-20T19:24:10.612Z,18.70
2019-06-20T19:26:36.463Z,18.63
2019-06-20T19:29:02.829Z,18.55
2019-06-20T19:31:28.841Z,18.52
2019-06-20T19:33:54.712Z,18.46
2019-06-20T19:36:20.622Z,18.36
2019-06-20T19:38:46.470Z,18.40
2019-06-20T19:41:14.408Z,18.28
2019-06-20T19:43:40.485Z,18.34
2019-06-20T19:46:06.621Z,18.28
2019-06-20T19:48:33.166Z,18.26
2019-06-20T19:51:00.903Z,18.30
2019-06-20T19:53:26.782Z,18.29
2019-06-20T19:55:52.655Z,18.25
2019-06-20T19:58:18.537Z,18.16
2019-06-20T20:00:44.520Z,18.05
2019-06-20T20:03:15.532Z,17.96
2019-06-20T20:05:42.499Z,17.99
2019-06-20T20:08:08.350Z,17.84
2019-06-20T20:10:45.991Z,17.88
2019-06-20T20:13:15.347Z,17.82
2019-06-20T20:15:40.510Z,17.75
2019-06-20T20:18:06.512Z,17.64
2019-06-20T20:20:32.362Z,17.66
2019-06-20T20:22:58.226Z,17.79
2019-06-20T20:25:24.175Z,17.52
2019-06-20T20:27:50.032Z,17.36
2019-06-20T20:30:16.095Z,17.80
2019-06-20T20:32:41.955Z,17.93
2019-06-20T20:35:08.281Z,17.91
2019-06-20T20:37:34.744Z,17.72
2019-06-20T20:40:00.617Z,17.63
2019-06-20T20:42:26.486Z,17.52
2019-06-20T20:44:53.470Z,17.50
2019-06-20T20:47:19.329Z,17.47
2019-06-20T20:49:45.192Z,17.52
2019-06-20T20:52:14.438Z,17.47
2019-06-20T20:54:40.272Z,17.24
2019-06-20T20:57:06.140Z,17.08
2019-06-20T20:59:32.114Z,16.95
2019-06-20T21:01:57.983Z,16.93
2019-06-20T21:04:23.866Z,16.90
2019-06-20T21:06:49.816Z,16.95
2019-06-20T21:09:15.658Z,16.93
2019-06-20T21:11:41.517Z,16.87
2019-06-20T21:14:07.382Z,16.86
2019-06-20T21:16:33.621Z,16.73
2019-06-20T21:18:59.932Z,16.69
2019-06-20T21:21:32.369Z,16.60
2019-06-20T21:23:58.228Z,16.63
2019-06-20T21:26:24.086Z,16.69
2019-06-20T21:28:49.967Z,16.62
2019-06-20T21:31:15.823Z,16.56
2019-06-20T21:33:41.724Z,16.47
2019-06-20T21:36:09.102Z,16.47
2019-06-20T21:38:35.249Z,16.33
2019-06-20T21:41:01.111Z,16.24
2019-06-20T21:43:26.982Z,16.29
2019-06-20T21:45:52.926Z,16.28
2019-06-20T21:48:19.336Z,16.23
2019-06-20T21:50:45.449Z,16.19
2019-06-20T21:53:11.317Z,16.13
2019-06-20T21:55:37.188Z,16.11
2019-06-20T21:58:03.057Z,16.03
2019-06-20T22:00:40.053Z,15.86
2019-06-20T22:03:06.214Z,15.89
2019-06-20T22:05:32.198Z,15.82
2019-06-20T22:07:58.075Z,15.93
2019-06-20T22:10:24.109Z,15.94
2019-06-20T22:12:50.133Z,16.05
2019-06-20T22:15:16.604Z,16.16
2019-06-20T22:17:42.465Z,16.06
2019-06-20T22:20:08.928Z,16.01
2019-06-20T22:22:34.886Z,15.94
2019-06-20T22:25:00.741Z,15.84
2019-06-20T22:27:26.591Z,15.73
2019-06-20T22:29:52.441Z,15.72
2019-06-20T22:32:18.309Z,15.71
2019-06-20T22:34:44.205Z,15.73
2019-06-20T22:37:10.147Z,15.68
2019-06-20T22:39:35.949Z,15.61
2019-06-20T22:42:01.820Z,15.63
2019-06-20T22:44:27.680Z,15.54
2019-06-20T22:46:53.540Z,15.50
2019-06-20T22:49:19.412Z,15.40
2019-06-20T22:51:45.272Z,15.40
2019-06-20T22:54:11.131Z,15.44
2019-06-20T22:56:36.999Z,15.40
2019-06-20T22:59:02.959Z,15.37
2019-06-20T23:01:28.810Z,15.27
2019-06-20T23:03:54.707Z,15.11
2019-06-20T23:06:20.587Z,15.14
2019-06-20T23:08:46.448Z,15.10
2019-06-20T23:11:12.317Z,15.05
2019-06-20T23:13:38.195Z,14.85
2019-06-20T23:16:04.025Z,14.67
2019-06-20T23:18:29.953Z,14.64
2019-06-20T23:21:04.582Z,14.58
2019-06-20T23:23:23.592Z,14.64
2019-06-20T23:25:51.387Z,14.45
2019-06-20T23:28:17.244Z,14.48
2019-06-20T23:30:43.118Z,14.59
2019-06-20T23:33:09.034Z,14.48
2019-06-20T23:35:34.954Z,14.42
2019-06-20T23:38:00.839Z,14.33
2019-06-20T23:40:27.601Z,14.38
2019-06-20T23:42:55.436Z,14.46
2019-06-20T23:45:21.456Z,14.39
2019-06-20T23:47:47.329Z,14.51
2019-06-20T23:50:19.377Z,14.36
2019-06-20T23:52:48.531Z,14.45
2019-06-20T23:55:14.334Z,14.42
2019-06-20T23:57:40.198Z,14.35
